createdAt,value
2022-11-19T08:51:13.352Z,48.25
2022-11-19T08:53:39.774Z,46.50
2022-11-19T08:56:06.374Z,42.97
2022-11-19T08:58:32.775Z,40.80
2022-11-19T09:00:59.439Z,41.00
2022-11-19T09:03:25.990Z,40.17
2022-11-19T09:05:53.349Z,40.67
2022-11-19T09:08:19.704Z,38.97
2022-11-19T09:10:46.032Z,36.58
2022-11-19T09:13:12.392Z,38.17
2022-11-19T09:15:40.017Z,36.80
2022-11-19T09:18:06.531Z,34.90
2022-11-19T09:20:32.898Z,33.67
2022-11-19T09:22:59.266Z,35.65
2022-11-19T09:25:25.675Z,31.83
2022-11-19T09:27:51.994Z,30.15
2022-11-19T09:30:18.332Z,32.53
2022-11-19T09:32:44.584Z,30.70
2022-11-19T09:35:10.852Z,31.10
2022-11-19T09:37:37.085Z,31.80
2022-11-19T09:40:04.679Z,28.17
2022-11-19T09:42:30.980Z,27.83
2022-11-19T09:44:57.281Z,29.65
2022-11-19T09:47:23.529Z,29.90
2022-11-19T09:49:49.747Z,28.00
2022-11-19T09:52:16.133Z,29.63
2022-11-19T09:54:42.359Z,29.20
2022-11-19T09:57:08.588Z,27.35
2022-11-19T09:59:34.910Z,29.35
2022-11-19T10:02:01.143Z,28.63
2022-11-19T10:04:27.537Z,30.52
2022-11-19T10:06:53.769Z,30.60
2022-11-19T10:09:19.979Z,29.15
2022-11-19T10:11:46.190Z,29.95
2022-11-19T10:14:12.561Z,27.42
2022-11-19T10:16:38.962Z,29.13
2022-11-19T10:19:05.244Z,27.08
2022-11-19T10:21:31.605Z,26.67
2022-11-19T10:24:00.750Z,28.83
2022-11-19T10:26:26.986Z,27.67
2022-11-19T10:28:53.188Z,26.35
2022-11-19T10:31:19.406Z,28.77
2022-11-19T10:33:45.660Z,28.23
2022-11-19T10:36:11.953Z,27.83
2022-11-19T10:38:38.296Z,28.60
2022-11-19T10:41:04.570Z,28.00
2022-11-19T10:43:30.806Z,26.80
2022-11-19T10:46:00.083Z,27.35
2022-11-19T10:48:26.372Z,26.30
2022-11-19T10:50:52.617Z,25.52
2022-11-19T10:56:18.957Z,26.52
2022-11-19T10:58:45.245Z,25.50
2022-11-19T11:01:11.844Z,24.20
2022-11-19T11:03:38.167Z,26.30
2022-11-19T11:06:06.310Z,26.92
2022-11-19T11:10:58.796Z,27.52
2022-11-19T11:13:54.429Z,29.55
2022-11-19T11:16:20.638Z,27.92
2022-11-19T11:18:47.051Z,24.95
2022-11-19T11:21:13.323Z,24.80
2022-11-19T11:23:39.932Z,26.95
2022-11-19T11:26:06.249Z,24.58
2022-11-19T11:28:32.511Z,26.20
2022-11-19T11:30:58.757Z,25.92
2022-11-19T11:33:25.051Z,26.45
2022-11-19T11:35:51.326Z,26.23
2022-11-19T11:38:17.743Z,24.17
2022-11-19T11:40:44.087Z,27.00
2022-11-19T11:43:10.367Z,25.80
2022-11-19T11:45:36.599Z,24.30
2022-11-19T11:48:02.973Z,25.73
2022-11-19T11:50:29.228Z,25.63
2022-11-19T11:52:55.469Z,25.23
2022-11-19T11:55:21.719Z,25.70
2022-11-19T11:57:47.978Z,25.02
2022-11-19T12:00:14.198Z,25.00
2022-11-19T12:02:40.652Z,23.75
2022-11-19T12:05:06.904Z,20.35
2022-11-19T12:07:33.194Z,23.75
2022-11-19T12:10:03.523Z,24.13
2022-11-19T12:12:29.800Z,24.60
2022-11-19T12:14:56.024Z,23.08
2022-11-19T12:17:22.280Z,24.75
2022-11-19T12:19:48.511Z,22.92
2022-11-19T12:22:14.851Z,23.17
2022-11-19T12:24:41.079Z,23.42
2022-11-19T12:27:07.330Z,24.58
2022-11-19T12:29:33.568Z,20.40
2022-11-19T12:31:59.799Z,22.58
2022-11-19T12:34:26.028Z,22.65
2022-11-19T12:36:56.691Z,22.98
2022-11-19T12:39:23.083Z,22.65
2022-11-19T12:41:49.356Z,22.67
2022-11-19T12:44:15.596Z,22.58
2022-11-19T12:46:41.959Z,23.80
2022-11-19T12:49:08.557Z,22.58
2022-11-19T12:51:35.889Z,22.58
2022-11-19T12:54:02.252Z,21.70
2022-11-19T12:56:28.494Z,20.05
2022-11-19T12:58:54.966Z,21.75
2022-11-19T13:01:21.291Z,20.23
2022-11-19T13:03:47.637Z,20.73
2022-11-19T13:06:17.822Z,21.70
2022-11-19T13:08:44.392Z,20.58
2022-11-19T13:11:12.413Z,20.95
2022-11-19T13:13:38.772Z,25.67
2022-11-19T13:16:05.063Z,20.13
2022-11-19T13:18:31.324Z,23.58
2022-11-19T13:20:57.585Z,22.05
2022-11-19T13:23:23.833Z,22.42
2022-11-19T13:25:50.118Z,22.15
2022-11-19T13:28:16.414Z,21.77
2022-11-19T13:30:42.693Z,22.58
2022-11-19T13:33:09.080Z,21.17
2022-11-19T13:35:35.365Z,22.52
2022-11-19T13:38:01.650Z,25.92
2022-11-19T13:40:27.917Z,22.92
2022-11-19T13:43:31.645Z,24.70
2022-11-19T13:45:59.000Z,23.30
2022-11-19T13:48:25.370Z,23.33
2022-11-19T13:50:52.662Z,22.80
2022-11-19T13:53:19.061Z,21.20
2022-11-19T13:55:45.287Z,21.38
2022-11-19T13:58:11.568Z,22.20
2022-11-19T14:00:37.903Z,23.50
2022-11-19T14:03:04.278Z,23.67
2022-11-19T14:05:30.554Z,22.95
2022-11-19T14:07:57.043Z,23.00
2022-11-19T14:10:23.630Z,23.95
2022-11-19T14:12:49.917Z,26.48
2022-11-19T14:31:37.733Z,25.65
2022-11-19T14:34:04.414Z,25.52
2022-11-19T14:36:30.942Z,25.63
2022-11-19T14:38:57.318Z,25.52
2022-11-19T15:45:36.649Z,28.00
2022-11-19T16:04:18.639Z,34.47
2022-11-19T16:17:49.575Z,32.15
2022-11-19T16:20:25.012Z,30.83
2022-11-19T16:22:52.034Z,41.70
2022-11-19T16:35:52.619Z,34.40
2022-11-19T16:38:28.508Z,32.17
2022-11-19T16:52:08.562Z,33.13
2022-11-19T16:54:39.273Z,34.95
2022-11-19T16:59:37.642Z,33.05
2022-11-19T17:36:45.100Z,33.35
2022-11-19T17:39:11.623Z,34.50
2022-11-19T17:44:24.953Z,37.67
2022-11-19T17:46:51.370Z,32.85
2022-11-19T17:49:22.476Z,34.28
2022-11-19T17:51:48.949Z,36.83
2022-11-19T17:54:15.350Z,39.33
2022-11-19T17:56:55.290Z,37.03
2022-11-19T17:59:44.019Z,35.75
2022-11-19T18:08:26.916Z,48.58
2022-11-19T18:10:53.348Z,34.25
2022-11-19T18:16:01.302Z,35.97
2022-11-19T18:18:27.742Z,38.35
2022-11-19T18:21:02.181Z,37.92
2022-11-19T18:23:29.411Z,37.15
2022-11-19T18:25:57.407Z,36.88
2022-11-19T18:30:52.535Z,36.77
2022-11-19T18:33:19.996Z,42.17
2022-11-19T18:35:48.870Z,36.97
2022-11-19T18:38:17.934Z,48.50
2022-11-19T18:43:43.626Z,35.40
2022-11-19T18:46:13.038Z,39.90
2022-11-19T18:48:41.010Z,40.05
2022-11-19T18:51:07.461Z,35.95
2022-11-19T18:53:33.880Z,37.83
2022-11-19T18:56:00.735Z,44.97
2022-11-19T18:58:30.161Z,37.67
2022-11-19T19:00:57.910Z,40.67
2022-11-19T19:03:24.350Z,40.42
2022-11-19T19:05:51.096Z,41.03
2022-11-19T19:08:17.374Z,41.30
2022-11-19T19:10:43.667Z,39.10
2022-11-19T19:13:09.956Z,41.15
2022-11-19T19:15:36.268Z,38.05
2022-11-19T19:18:07.754Z,40.17
2022-11-19T19:20:36.880Z,37.90
2022-11-19T19:23:03.626Z,37.72
2022-11-19T19:25:29.934Z,38.85
2022-11-19T19:27:56.231Z,41.95
2022-11-19T19:30:22.496Z,38.15
2022-11-19T19:32:48.877Z,41.08
2022-11-19T19:35:18.205Z,39.95
2022-11-19T19:37:45.070Z,39.35
2022-11-19T19:40:11.415Z,41.33
2022-11-19T19:42:41.230Z,40.10
2022-11-19T19:45:07.937Z,38.95
2022-11-19T19:47:34.236Z,38.53
2022-11-19T19:50:00.480Z,38.60
2022-11-19T19:52:26.747Z,40.65
2022-11-19T19:54:53.137Z,38.10
2022-11-19T19:57:19.403Z,38.42
2022-11-19T19:59:45.690Z,40.80
2022-11-19T20:02:12.091Z,40.30
2022-11-19T20:04:38.360Z,40.65
2022-11-19T20:07:04.651Z,41.90
2022-11-19T20:09:30.912Z,40.47
2022-11-19T20:11:57.195Z,37.78
2022-11-19T20:14:23.478Z,41.10
2022-11-19T20:16:50.513Z,42.97
2022-11-19T20:19:16.885Z,37.33
2022-11-19T20:21:47.206Z,38.42
2022-11-19T20:24:14.142Z,36.97
2022-11-19T20:26:44.010Z,37.20
2022-11-19T20:29:10.451Z,40.53
2022-11-19T20:31:39.872Z,39.35
2022-11-19T20:34:09.361Z,36.97
2022-11-19T20:36:35.653Z,39.35
2022-11-19T20:39:02.127Z,38.03
2022-11-19T20:41:47.275Z,41.97
2022-11-19T20:44:27.496Z,36.95
2022-11-19T20:46:54.915Z,40.22
2022-11-19T20:49:21.774Z,39.55
2022-11-19T20:51:50.615Z,38.05
2022-11-19T20:54:19.999Z,41.03
2022-11-19T20:56:46.573Z,39.75
2022-11-19T20:59:12.933Z,41.90
2022-11-19T21:01:41.793Z,35.53
2022-11-19T21:04:08.657Z,37.28
2022-11-19T21:06:37.895Z,36.08
2022-11-19T21:09:04.302Z,37.45
2022-11-19T21:11:33.097Z,37.47
2022-11-19T21:13:59.689Z,38.15
2022-11-19T21:16:29.046Z,39.22
2022-11-19T21:18:55.515Z,37.47
2022-11-19T21:21:24.394Z,37.72
2022-11-19T21:23:50.791Z,36.05
2022-11-19T21:26:17.273Z,41.15
2022-11-19T21:28:46.177Z,38.60
2022-11-19T21:31:14.947Z,38.20
2022-11-19T21:36:18.863Z,40.13
2022-11-19T21:38:47.645Z,37.78
2022-11-19T21:41:17.004Z,40.60
2022-11-19T21:43:43.383Z,38.30
2022-11-19T21:48:55.848Z,35.42
2022-11-19T21:51:24.889Z,35.08
2022-11-19T21:53:51.911Z,38.30
2022-11-19T21:56:19.145Z,36.08
2022-11-19T21:58:45.708Z,39.22
2022-11-19T22:01:12.309Z,39.78
2022-11-19T22:03:38.726Z,38.92
2022-11-19T22:06:05.127Z,38.38
2022-11-19T22:08:31.508Z,40.40
2022-11-19T22:10:58.181Z,41.03
2022-11-19T22:13:29.390Z,39.88
2022-11-19T22:15:59.520Z,39.30
2022-11-19T22:18:28.264Z,38.67
2022-11-19T22:20:57.545Z,41.40
2022-11-19T22:26:13.173Z,36.58
2022-11-19T22:28:39.588Z,38.30
2022-11-19T22:31:05.921Z,40.63
2022-11-19T22:33:35.171Z,40.60
2022-11-19T22:36:09.267Z,40.83
2022-11-19T22:38:38.192Z,39.00
2022-11-19T22:41:07.525Z,38.72
2022-11-19T22:43:36.700Z,35.08
2022-11-19T22:54:03.328Z,35.45
2022-11-19T22:56:29.838Z,37.40
2022-11-19T22:58:56.183Z,35.38
2022-11-19T23:01:22.653Z,37.28
2022-11-19T23:03:49.149Z,32.05
2022-11-19T23:06:19.029Z,35.78
2022-11-19T23:08:45.610Z,37.15
2022-11-19T23:11:12.053Z,34.47
2022-11-19T23:13:39.162Z,33.72
2022-11-19T23:16:05.933Z,38.28
2022-11-19T23:18:35.726Z,41.05
2022-11-19T23:21:02.240Z,33.08
2022-11-19T23:23:31.019Z,37.28
2022-11-19T23:25:59.801Z,33.58
2022-11-19T23:28:28.701Z,33.67
2022-11-19T23:30:55.024Z,35.05
2022-11-19T23:33:24.249Z,37.40
2022-11-19T23:35:50.599Z,33.33
2022-11-19T23:38:19.775Z,35.28
2022-11-19T23:40:49.048Z,36.95
2022-11-19T23:45:59.141Z,32.63
2022-11-19T23:48:25.938Z,35.25
2022-11-19T23:50:52.562Z,36.42
2022-11-19T23:53:20.833Z,37.33
2022-11-19T23:58:15.140Z,31.75
